sensor_id;sensor_type;location;lat;lon;timestamp;P1;durP1;ratioP1;P2;durP2;ratioP2
3337;SDS011;1682;49.286;10.788;2023-03-14T00:01:53;3.87;;;2.70;;
3337;SDS011;1682;49.286;10.788;2023-03-14T00:04:20;4.73;;;2.77;;
3337;SDS011;1682;49.286;10.788;2023-03-14T00:06:47;7.67;;;3.60;;
3337;SDS011;1682;49.286;10.788;2023-03-14T00:09:14;12.10;;;5.20;;
3337;SDS011;1682;49.286;10.788;2023-03-14T00:11:42;13.00;;;6.50;;
3337;SDS011;1682;49.286;10.788;2023-03-14T00:14:10;12.20;;;6.53;;
3337;SDS011;1682;49.286;10.788;2023-03-14T00:16:38;1.83;;;1.73;;
3337;SDS011;1682;49.286;10.788;2023-03-14T00:19:05;2.67;;;2.47;;
3337;SDS011;1682;49.286;10.788;2023-03-14T00:21:33;2.10;;;2.00;;
3337;SDS011;1682;49.286;10.788;2023-03-14T00:24:00;3.70;;;2.07;;
3337;SDS011;1682;49.286;10.788;2023-03-14T00:26:27;4.40;;;3.57;;
3337;SDS011;1682;49.286;10.788;2023-03-14T00:28:55;1.10;;;1.10;;
3337;SDS011;1682;49.286;10.788;2023-03-14T00:31:23;2.60;;;2.40;;
3337;SDS011;1682;49.286;10.788;2023-03-14T00:33:51;1.77;;;0.97;;
3337;SDS011;1682;49.286;10.788;2023-03-14T00:36:19;0.90;;;0.73;;
3337;SDS011;1682;49.286;10.788;2023-03-14T00:38:47;0.60;;;0.60;;
3337;SDS011;1682;49.286;10.788;2023-03-14T00:41:16;1.20;;;1.10;;
3337;SDS011;1682;49.286;10.788;2023-03-14T00:43:43;1.57;;;0.80;;
3337;SDS011;1682;49.286;10.788;2023-03-14T00:46:10;0.70;;;0.70;;
3337;SDS011;1682;49.286;10.788;2023-03-14T00:48:58;0.50;;;0.50;;
3337;SDS011;1682;49.286;10.788;2023-03-14T00:51:25;1.17;;;0.80;;
3337;SDS011;1682;49.286;10.788;2023-03-14T00:53:52;1.13;;;0.63;;
3337;SDS011;1682;49.286;10.788;2023-03-14T00:56:19;1.00;;;1.00;;
3337;SDS011;1682;49.286;10.788;2023-03-14T00:58:46;0.73;;;0.73;;
3337;SDS011;1682;49.286;10.788;2023-03-14T01:01:14;1.03;;;1.03;;
3337;SDS011;1682;49.286;10.788;2023-03-14T01:03:42;0.80;;;0.80;;
3337;SDS011;1682;49.286;10.788;2023-03-14T01:06:12;0.60;;;0.60;;
3337;SDS011;1682;49.286;10.788;2023-03-14T01:08:40;0.97;;;0.70;;
3337;SDS011;1682;49.286;10.788;2023-03-14T01:11:07;1.00;;;0.90;;
3337;SDS011;1682;49.286;10.788;2023-03-14T01:13:35;2.50;;;1.57;;
3337;SDS011;1682;49.286;10.788;2023-03-14T01:16:03;0.73;;;0.70;;
3337;SDS011;1682;49.286;10.788;2023-03-14T01:18:30;0.80;;;0.80;;
3337;SDS011;1682;49.286;10.788;2023-03-14T01:20:57;0.70;;;0.70;;
3337;SDS011;1682;49.286;10.788;2023-03-14T01:23:26;1.07;;;0.83;;
3337;SDS011;1682;49.286;10.788;2023-03-14T01:25:53;1.07;;;0.90;;
3337;SDS011;1682;49.286;10.788;2023-03-14T01:28:20;0.60;;;0.60;;
3337;SDS011;1682;49.286;10.788;2023-03-14T01:30:47;0.83;;;0.83;;
3337;SDS011;1682;49.286;10.788;2023-03-14T01:33:14;0.80;;;0.80;;
3337;SDS011;1682;49.286;10.788;2023-03-14T01:35:42;1.07;;;0.90;;
3337;SDS011;1682;49.286;10.788;2023-03-14T01:38:09;0.60;;;0.60;;
3337;SDS011;1682;49.286;10.788;2023-03-14T01:40:42;0.77;;;0.70;;
3337;SDS011;1682;49.286;10.788;2023-03-14T01:43:14;0.67;;;0.67;;
3337;SDS011;1682;49.286;10.788;2023-03-14T01:46:09;1.00;;;0.90;;
3337;SDS011;1682;49.286;10.788;2023-03-14T01:48:40;1.43;;;0.90;;
3337;SDS011;1682;49.286;10.788;2023-03-14T01:51:09;1.67;;;0.70;;
3337;SDS011;1682;49.286;10.788;2023-03-14T01:53:37;1.23;;;1.13;;
3337;SDS011;1682;49.286;10.788;2023-03-14T01:56:07;0.83;;;0.83;;
3337;SDS011;1682;49.286;10.788;2023-03-14T01:58:35;1.20;;;1.10;;
3337;SDS011;1682;49.286;10.788;2023-03-14T02:01:02;0.70;;;0.70;;
3337;SDS011;1682;49.286;10.788;2023-03-14T02:03:30;1.13;;;0.80;;
3337;SDS011;1682;49.286;10.788;2023-03-14T02:06:03;0.93;;;0.93;;
3337;SDS011;1682;49.286;10.788;2023-03-14T02:08:31;0.77;;;0.67;;
3337;SDS011;1682;49.286;10.788;2023-03-14T02:11:00;1.20;;;0.90;;
3337;SDS011;1682;49.286;10.788;2023-03-14T02:13:28;0.73;;;0.73;;
3337;SDS011;1682;49.286;10.788;2023-03-14T02:15:55;1.57;;;0.80;;
3337;SDS011;1682;49.286;10.788;2023-03-14T02:18:22;0.70;;;0.70;;
3337;SDS011;1682;49.286;10.788;2023-03-14T02:20:51;0.60;;;0.60;;
3337;SDS011;1682;49.286;10.788;2023-03-14T02:23:20;1.70;;;1.13;;
3337;SDS011;1682;49.286;10.788;2023-03-14T02:25:51;1.00;;;0.90;;
3337;SDS011;1682;49.286;10.788;2023-03-14T02:28:23;0.67;;;0.67;;
3337;SDS011;1682;49.286;10.788;2023-03-14T02:30:50;1.93;;;0.80;;
3337;SDS011;1682;49.286;10.788;2023-03-14T02:33:18;5.80;;;1.57;;
3337;SDS011;1682;49.286;10.788;2023-03-14T02:35:46;0.80;;;0.80;;
3337;SDS011;1682;49.286;10.788;2023-03-14T02:38:15;0.90;;;0.90;;
3337;SDS011;1682;49.286;10.788;2023-03-14T02:40:44;0.83;;;0.83;;
3337;SDS011;1682;49.286;10.788;2023-03-14T02:43:11;2.73;;;1.20;;
3337;SDS011;1682;49.286;10.788;2023-03-14T02:45:41;0.60;;;0.60;;
3337;SDS011;1682;49.286;10.788;2023-03-14T02:48:11;1.00;;;0.80;;
3337;SDS011;1682;49.286;10.788;2023-03-14T02:50:39;2.17;;;1.97;;
3337;SDS011;1682;49.286;10.788;2023-03-14T02:53:06;1.30;;;1.20;;
3337;SDS011;1682;49.286;10.788;2023-03-14T02:55:34;0.80;;;0.80;;
3337;SDS011;1682;49.286;10.788;2023-03-14T02:58:01;12.87;;;4.90;;
3337;SDS011;1682;49.286;10.788;2023-03-14T03:00:28;0.70;;;0.70;;
3337;SDS011;1682;49.286;10.788;2023-03-14T03:02:57;2.90;;;2.20;;
3337;SDS011;1682;49.286;10.788;2023-03-14T03:05:24;0.93;;;0.90;;
3337;SDS011;1682;49.286;10.788;2023-03-14T03:07:51;0.60;;;0.60;;
3337;SDS011;1682;49.286;10.788;2023-03-14T03:10:18;0.80;;;0.80;;
3337;SDS011;1682;49.286;10.788;2023-03-14T03:12:46;0.83;;;0.83;;
3337;SDS011;1682;49.286;10.788;2023-03-14T03:15:13;0.70;;;0.70;;
3337;SDS011;1682;49.286;10.788;2023-03-14T03:17:40;0.70;;;0.60;;
3337;SDS011;1682;49.286;10.788;2023-03-14T03:20:09;1.50;;;0.80;;
3337;SDS011;1682;49.286;10.788;2023-03-14T03:22:37;0.60;;;0.60;;
3337;SDS011;1682;49.286;10.788;2023-03-14T03:25:05;0.80;;;0.80;;
3337;SDS011;1682;49.286;10.788;2023-03-14T03:27:33;0.80;;;0.80;;
3337;SDS011;1682;49.286;10.788;2023-03-14T03:30:00;1.10;;;0.80;;
3337;SDS011;1682;49.286;10.788;2023-03-14T03:32:27;0.70;;;0.70;;
3337;SDS011;1682;49.286;10.788;2023-03-14T03:34:54;0.60;;;0.60;;
3337;SDS011;1682;49.286;10.788;2023-03-14T03:37:23;0.60;;;0.60;;
3337;SDS011;1682;49.286;10.788;2023-03-14T03:39:50;0.80;;;0.70;;
3337;SDS011;1682;49.286;10.788;2023-03-14T03:42:17;0.80;;;0.80;;
3337;SDS011;1682;49.286;10.788;2023-03-14T03:47:40;1.20;;;0.60;;
3337;SDS011;1682;49.286;10.788;2023-03-14T03:50:07;1.17;;;0.57;;
3337;SDS011;1682;49.286;10.788;2023-03-14T03:52:36;0.60;;;0.60;;
3337;SDS011;1682;49.286;10.788;2023-03-14T03:55:04;0.70;;;0.70;;
3337;SDS011;1682;49.286;10.788;2023-03-14T03:57:31;0.70;;;0.70;;
3337;SDS011;1682;49.286;10.788;2023-03-14T03:59:58;0.80;;;0.80;;
3337;SDS011;1682;49.286;10.788;2023-03-14T04:02:25;0.53;;;0.53;;
3337;SDS011;1682;49.286;10.788;2023-03-14T04:04:54;0.50;;;0.50;;
3337;SDS011;1682;49.286;10.788;2023-03-14T04:07:21;1.47;;;1.30;;
3337;SDS011;1682;49.286;10.788;2023-03-14T04:12:50;1.00;;;0.60;;
3337;SDS011;1682;49.286;10.788;2023-03-14T04:15:17;0.60;;;0.60;;
3337;SDS011;1682;49.286;10.788;2023-03-14T04:17:44;1.63;;;0.93;;
3337;SDS011;1682;49.286;10.788;2023-03-14T04:20:11;5.20;;;3.93;;
3337;SDS011;1682;49.286;10.788;2023-03-14T04:22:38;0.57;;;0.57;;
3337;SDS011;1682;49.286;10.788;2023-03-14T04:25:06;0.57;;;0.57;;
3337;SDS011;1682;49.286;10.788;2023-03-14T04:27:34;0.80;;;0.80;;
3337;SDS011;1682;49.286;10.788;2023-03-14T04:30:02;1.00;;;1.00;;
3337;SDS011;1682;49.286;10.788;2023-03-14T04:32:30;0.70;;;0.70;;
3337;SDS011;1682;49.286;10.788;2023-03-14T04:34:57;0.70;;;0.70;;
3337;SDS011;1682;49.286;10.788;2023-03-14T04:37:33;0.70;;;0.70;;
3337;SDS011;1682;49.286;10.788;2023-03-14T04:40:00;1.27;;;1.27;;
3337;SDS011;1682;49.286;10.788;2023-03-14T04:42:31;2.63;;;0.60;;
3337;SDS011;1682;49.286;10.788;2023-03-14T04:44:58;0.80;;;0.80;;
3337;SDS011;1682;49.286;10.788;2023-03-14T04:47:27;0.73;;;0.73;;
3337;SDS011;1682;49.286;10.788;2023-03-14T04:49:54;0.70;;;0.70;;
3337;SDS011;1682;49.286;10.788;2023-03-14T04:52:21;1.13;;;1.03;;
3337;SDS011;1682;49.286;10.788;2023-03-14T04:54:48;0.70;;;0.70;;
3337;SDS011;1682;49.286;10.788;2023-03-14T04:57:28;1.10;;;1.10;;
3337;SDS011;1682;49.286;10.788;2023-03-14T04:59:55;1.00;;;1.00;;
3337;SDS011;1682;49.286;10.788;2023-03-14T05:02:22;1.50;;;1.40;;
3337;SDS011;1682;49.286;10.788;2023-03-14T05:04:51;1.97;;;1.67;;
3337;SDS011;1682;49.286;10.788;2023-03-14T05:07:24;8.40;;;7.60;;
3337;SDS011;1682;49.286;10.788;2023-03-14T05:09:51;0.90;;;0.90;;
3337;SDS011;1682;49.286;10.788;2023-03-14T05:12:18;1.80;;;1.30;;
3337;SDS011;1682;49.286;10.788;2023-03-14T05:14:45;0.93;;;0.93;;
3337;SDS011;1682;49.286;10.788;2023-03-14T05:17:24;2.40;;;1.17;;
3337;SDS011;1682;49.286;10.788;2023-03-14T05:19:53;1.50;;;1.20;;
3337;SDS011;1682;49.286;10.788;2023-03-14T05:22:20;1.40;;;1.30;;
3337;SDS011;1682;49.286;10.788;2023-03-14T05:24:47;1.40;;;1.30;;
3337;SDS011;1682;49.286;10.788;2023-03-14T05:27:38;2.27;;;2.17;;
3337;SDS011;1682;49.286;10.788;2023-03-14T05:30:06;1.90;;;1.80;;
3337;SDS011;1682;49.286;10.788;2023-03-14T05:32:49;2.63;;;2.50;;
3337;SDS011;1682;49.286;10.788;2023-03-14T05:35:17;4.77;;;4.43;;
3337;SDS011;1682;49.286;10.788;2023-03-14T05:37:45;4.77;;;4.37;;
3337;SDS011;1682;49.286;10.788;2023-03-14T05:40:12;4.07;;;3.77;;
3337;SDS011;1682;49.286;10.788;2023-03-14T05:42:39;3.00;;;2.83;;
3337;SDS011;1682;49.286;10.788;2023-03-14T05:45:07;3.77;;;3.57;;
3337;SDS011;1682;49.286;10.788;2023-03-14T05:47:34;4.10;;;3.80;;
3337;SDS011;1682;49.286;10.788;2023-03-14T05:50:01;3.50;;;3.30;;
3337;SDS011;1682;49.286;10.788;2023-03-14T05:52:30;6.03;;;5.53;;
3337;SDS011;1682;49.286;10.788;2023-03-14T05:54:57;4.53;;;4.23;;
3337;SDS011;1682;49.286;10.788;2023-03-14T05:57:24;6.70;;;6.20;;
3337;SDS011;1682;49.286;10.788;2023-03-14T05:59:52;5.70;;;5.20;;
3337;SDS011;1682;49.286;10.788;2023-03-14T06:02:19;5.43;;;4.90;;
3337;SDS011;1682;49.286;10.788;2023-03-14T06:04:46;6.10;;;5.70;;
3337;SDS011;1682;49.286;10.788;2023-03-14T06:07:19;7.23;;;6.57;;
3337;SDS011;1682;49.286;10.788;2023-03-14T06:09:48;4.47;;;4.07;;
3337;SDS011;1682;49.286;10.788;2023-03-14T06:12:15;7.37;;;6.87;;
3337;SDS011;1682;49.286;10.788;2023-03-14T06:14:42;12.23;;;11.20;;
3337;SDS011;1682;49.286;10.788;2023-03-14T06:17:21;17.30;;;15.60;;
3337;SDS011;1682;49.286;10.788;2023-03-14T06:19:48;13.23;;;12.03;;
3337;SDS011;1682;49.286;10.788;2023-03-14T06:22:16;10.00;;;9.10;;
3337;SDS011;1682;49.286;10.788;2023-03-14T06:24:44;2.50;;;2.30;;
3337;SDS011;1682;49.286;10.788;2023-03-14T06:27:13;1.50;;;1.40;;
3337;SDS011;1682;49.286;10.788;2023-03-14T06:29:40;3.67;;;3.37;;
3337;SDS011;1682;49.286;10.788;2023-03-14T06:32:07;7.80;;;7.10;;
3337;SDS011;1682;49.286;10.788;2023-03-14T06:34:35;7.47;;;6.87;;
3337;SDS011;1682;49.286;10.788;2023-03-14T06:37:03;14.90;;;13.30;;
3337;SDS011;1682;49.286;10.788;2023-03-14T06:39:30;10.03;;;9.03;;
3337;SDS011;1682;49.286;10.788;2023-03-14T06:41:58;2.90;;;2.70;;
3337;SDS011;1682;49.286;10.788;2023-03-14T06:44:26;6.30;;;5.80;;
3337;SDS011;1682;49.286;10.788;2023-03-14T06:46:53;6.87;;;5.83;;
3337;SDS011;1682;49.286;10.788;2023-03-14T06:49:21;3.83;;;3.53;;
3337;SDS011;1682;49.286;10.788;2023-03-14T06:51:48;10.07;;;5.23;;
3337;SDS011;1682;49.286;10.788;2023-03-14T06:54:15;5.00;;;2.90;;
3337;SDS011;1682;49.286;10.788;2023-03-14T06:57:01;4.30;;;3.10;;
3337;SDS011;1682;49.286;10.788;2023-03-14T06:59:30;9.73;;;5.23;;
3337;SDS011;1682;49.286;10.788;2023-03-14T07:01:57;3.60;;;3.30;;
3337;SDS011;1682;49.286;10.788;2023-03-14T07:04:25;5.23;;;4.00;;
3337;SDS011;1682;49.286;10.788;2023-03-14T07:06:52;4.20;;;3.80;;
3337;SDS011;1682;49.286;10.788;2023-03-14T07:09:19;3.07;;;2.40;;
3337;SDS011;1682;49.286;10.788;2023-03-14T07:11:46;4.00;;;3.60;;
3337;SDS011;1682;49.286;10.788;2023-03-14T07:14:13;2.60;;;2.40;;
3337;SDS011;1682;49.286;10.788;2023-03-14T07:16:42;3.47;;;3.27;;
3337;SDS011;1682;49.286;10.788;2023-03-14T07:19:10;2.97;;;2.40;;
3337;SDS011;1682;49.286;10.788;2023-03-14T07:21:37;3.97;;;2.63;;
3337;SDS011;1682;49.286;10.788;2023-03-14T07:24:05;2.47;;;2.37;;
3337;SDS011;1682;49.286;10.788;2023-03-14T07:26:32;11.17;;;7.30;;
3337;SDS011;1682;49.286;10.788;2023-03-14T07:28:59;4.23;;;3.87;;
3337;SDS011;1682;49.286;10.788;2023-03-14T07:31:28;7.83;;;3.77;;
3337;SDS011;1682;49.286;10.788;2023-03-14T07:33:57;2.80;;;2.60;;
3337;SDS011;1682;49.286;10.788;2023-03-14T07:36:24;7.70;;;5.30;;
3337;SDS011;1682;49.286;10.788;2023-03-14T07:38:51;4.10;;;3.47;;
3337;SDS011;1682;49.286;10.788;2023-03-14T07:41:19;5.70;;;5.10;;
3337;SDS011;1682;49.286;10.788;2023-03-14T07:43:48;3.57;;;3.10;;
3337;SDS011;1682;49.286;10.788;2023-03-14T07:46:15;3.83;;;3.53;;
3337;SDS011;1682;49.286;10.788;2023-03-14T07:48:42;2.60;;;2.40;;
3337;SDS011;1682;49.286;10.788;2023-03-14T07:51:11;5.63;;;2.53;;
3337;SDS011;1682;49.286;10.788;2023-03-14T07:53:38;2.50;;;2.13;;
3337;SDS011;1682;49.286;10.788;2023-03-14T07:56:05;3.40;;;2.83;;
3337;SDS011;1682;49.286;10.788;2023-03-14T07:58:33;3.87;;;2.60;;
3337;SDS011;1682;49.286;10.788;2023-03-14T08:01:00;2.83;;;2.63;;
3337;SDS011;1682;49.286;10.788;2023-03-14T08:03:28;2.00;;;1.90;;
3337;SDS011;1682;49.286;10.788;2023-03-14T08:05:55;1.67;;;1.57;;
3337;SDS011;1682;49.286;10.788;2023-03-14T08:08:23;6.03;;;2.70;;
3337;SDS011;1682;49.286;10.788;2023-03-14T08:10:50;1.50;;;1.40;;
3337;SDS011;1682;49.286;10.788;2023-03-14T08:13:17;1.33;;;1.23;;
3337;SDS011;1682;49.286;10.788;2023-03-14T08:15:47;2.00;;;1.87;;
3337;SDS011;1682;49.286;10.788;2023-03-14T08:18:16;1.70;;;1.60;;
3337;SDS011;1682;49.286;10.788;2023-03-14T08:20:43;2.10;;;1.90;;
3337;SDS011;1682;49.286;10.788;2023-03-14T08:23:10;1.70;;;1.60;;
3337;SDS011;1682;49.286;10.788;2023-03-14T08:25:39;2.03;;;1.20;;
3337;SDS011;1682;49.286;10.788;2023-03-14T08:28:06;1.13;;;1.10;;
3337;SDS011;1682;49.286;10.788;2023-03-14T08:30:33;1.40;;;1.30;;
3337;SDS011;1682;49.286;10.788;2023-03-14T08:33:01;1.23;;;0.97;;
3337;SDS011;1682;49.286;10.788;2023-03-14T08:35:28;3.10;;;2.43;;
3337;SDS011;1682;49.286;10.788;2023-03-14T08:37:55;2.60;;;1.63;;
3337;SDS011;1682;49.286;10.788;2023-03-14T08:40:22;1.83;;;1.57;;
3337;SDS011;1682;49.286;10.788;2023-03-14T08:42:51;1.97;;;1.17;;
3337;SDS011;1682;49.286;10.788;2023-03-14T08:45:18;1.63;;;1.27;;
3337;SDS011;1682;49.286;10.788;2023-03-14T08:47:46;1.70;;;1.37;;
3337;SDS011;1682;49.286;10.788;2023-03-14T08:50:13;3.50;;;1.00;;
3337;SDS011;1682;49.286;10.788;2023-03-14T08:52:41;1.53;;;1.33;;
3337;SDS011;1682;49.286;10.788;2023-03-14T08:55:08;2.10;;;1.43;;
3337;SDS011;1682;49.286;10.788;2023-03-14T08:57:35;1.70;;;1.27;;
3337;SDS011;1682;49.286;10.788;2023-03-14T09:00:05;3.37;;;1.60;;
3337;SDS011;1682;49.286;10.788;2023-03-14T09:02:35;2.00;;;0.93;;
3337;SDS011;1682;49.286;10.788;2023-03-14T09:05:03;2.70;;;1.80;;
3337;SDS011;1682;49.286;10.788;2023-03-14T09:07:30;2.13;;;1.30;;
3337;SDS011;1682;49.286;10.788;2023-03-14T09:09:57;2.20;;;0.80;;
3337;SDS011;1682;49.286;10.788;2023-03-14T09:12:24;4.03;;;2.50;;
3337;SDS011;1682;49.286;10.788;2023-03-14T09:14:52;1.23;;;1.07;;
3337;SDS011;1682;49.286;10.788;2023-03-14T09:17:23;0.90;;;0.90;;
3337;SDS011;1682;49.286;10.788;2023-03-14T09:19:50;1.77;;;1.63;;
3337;SDS011;1682;49.286;10.788;2023-03-14T09:22:18;1.93;;;1.50;;
3337;SDS011;1682;49.286;10.788;2023-03-14T09:24:45;5.30;;;2.10;;
3337;SDS011;1682;49.286;10.788;2023-03-14T09:27:27;1.17;;;1.07;;
3337;SDS011;1682;49.286;10.788;2023-03-14T09:29:54;4.23;;;1.10;;
3337;SDS011;1682;49.286;10.788;2023-03-14T09:32:23;1.13;;;0.90;;
3337;SDS011;1682;49.286;10.788;2023-03-14T09:34:50;2.43;;;1.20;;
3337;SDS011;1682;49.286;10.788;2023-03-14T09:37:18;2.03;;;1.00;;
3337;SDS011;1682;49.286;10.788;2023-03-14T09:39:46;4.50;;;1.23;;
3337;SDS011;1682;49.286;10.788;2023-03-14T09:42:14;1.50;;;0.83;;
3337;SDS011;1682;49.286;10.788;2023-03-14T09:44:42;1.00;;;1.00;;
3337;SDS011;1682;49.286;10.788;2023-03-14T09:47:33;1.53;;;0.90;;
3337;SDS011;1682;49.286;10.788;2023-03-14T09:50:00;1.73;;;1.50;;
3337;SDS011;1682;49.286;10.788;2023-03-14T09:52:28;1.90;;;1.30;;
3337;SDS011;1682;49.286;10.788;2023-03-14T09:55:16;1.33;;;1.00;;
3337;SDS011;1682;49.286;10.788;2023-03-14T09:57:43;2.10;;;0.70;;
3337;SDS011;1682;49.286;10.788;2023-03-14T10:00:14;0.60;;;0.60;;
3337;SDS011;1682;49.286;10.788;2023-03-14T10:02:45;0.93;;;0.87;;
3337;SDS011;1682;49.286;10.788;2023-03-14T10:05:15;2.73;;;0.80;;
3337;SDS011;1682;49.286;10.788;2023-03-14T10:07:42;0.80;;;0.80;;
3337;SDS011;1682;49.286;10.788;2023-03-14T10:10:10;1.40;;;1.17;;
3337;SDS011;1682;49.286;10.788;2023-03-14T10:12:38;2.87;;;0.83;;
3337;SDS011;1682;49.286;10.788;2023-03-14T10:15:07;0.80;;;0.67;;
3337;SDS011;1682;49.286;10.788;2023-03-14T10:17:39;1.37;;;1.27;;
3337;SDS011;1682;49.286;10.788;2023-03-14T10:20:15;1.00;;;0.80;;
3337;SDS011;1682;49.286;10.788;2023-03-14T10:22:52;2.53;;;0.90;;
3337;SDS011;1682;49.286;10.788;2023-03-14T10:25:25;1.97;;;1.10;;
3337;SDS011;1682;49.286;10.788;2023-03-14T10:27:52;2.70;;;2.50;;
3337;SDS011;1682;49.286;10.788;2023-03-14T10:30:27;0.80;;;0.80;;
3337;SDS011;1682;49.286;10.788;2023-03-14T10:33:07;1.77;;;0.90;;
3337;SDS011;1682;49.286;10.788;2023-03-14T10:35:36;0.80;;;0.80;;
3337;SDS011;1682;49.286;10.788;2023-03-14T10:38:03;8.03;;;1.50;;
3337;SDS011;1682;49.286;10.788;2023-03-14T10:40:31;4.73;;;1.40;;
3337;SDS011;1682;49.286;10.788;2023-03-14T10:42:59;0.80;;;0.80;;
3337;SDS011;1682;49.286;10.788;2023-03-14T10:45:35;0.80;;;0.80;;
3337;SDS011;1682;49.286;10.788;2023-03-14T10:48:06;1.20;;;1.10;;
3337;SDS011;1682;49.286;10.788;2023-03-14T10:50:48;0.90;;;0.90;;
3337;SDS011;1682;49.286;10.788;2023-03-14T10:53:17;1.33;;;1.23;;
3337;SDS011;1682;49.286;10.788;2023-03-14T10:55:44;9.73;;;6.20;;
3337;SDS011;1682;49.286;10.788;2023-03-14T10:58:19;2.23;;;1.70;;
3337;SDS011;1682;49.286;10.788;2023-03-14T11:00:47;3.60;;;2.63;;
3337;SDS011;1682;49.286;10.788;2023-03-14T11:03:15;12.90;;;7.57;;
3337;SDS011;1682;49.286;10.788;2023-03-14T11:05:46;12.23;;;7.17;;
3337;SDS011;1682;49.286;10.788;2023-03-14T11:08:18;19.57;;;10.03;;
3337;SDS011;1682;49.286;10.788;2023-03-14T11:10:48;16.27;;;7.20;;
3337;SDS011;1682;49.286;10.788;2023-03-14T11:13:20;2.83;;;2.10;;
3337;SDS011;1682;49.286;10.788;2023-03-14T11:15:53;16.83;;;9.30;;
3337;SDS011;1682;49.286;10.788;2023-03-14T11:18:43;18.40;;;10.40;;
3337;SDS011;1682;49.286;10.788;2023-03-14T11:21:16;9.97;;;6.57;;
3337;SDS011;1682;49.286;10.788;2023-03-14T11:23:48;13.43;;;6.20;;
3337;SDS011;1682;49.286;10.788;2023-03-14T11:26:20;0.80;;;0.80;;
3337;SDS011;1682;49.286;10.788;2023-03-14T11:28:53;12.20;;;7.70;;
3337;SDS011;1682;49.286;10.788;2023-03-14T11:31:24;7.00;;;3.50;;
3337;SDS011;1682;49.286;10.788;2023-03-14T11:33:54;4.53;;;3.10;;
3337;SDS011;1682;49.286;10.788;2023-03-14T11:36:24;2.87;;;2.67;;
3337;SDS011;1682;49.286;10.788;2023-03-14T11:38:58;6.73;;;5.50;;
3337;SDS011;1682;49.286;10.788;2023-03-14T11:41:27;6.60;;;4.43;;
3337;SDS011;1682;49.286;10.788;2023-03-14T11:44:00;4.90;;;4.17;;
3337;SDS011;1682;49.286;10.788;2023-03-14T11:46:28;2.40;;;2.20;;
3337;SDS011;1682;49.286;10.788;2023-03-14T11:48:59;3.70;;;3.33;;
3337;SDS011;1682;49.286;10.788;2023-03-14T11:51:29;3.27;;;1.20;;
3337;SDS011;1682;49.286;10.788;2023-03-14T11:53:59;12.60;;;8.53;;
3337;SDS011;1682;49.286;10.788;2023-03-14T11:56:33;14.43;;;9.60;;
3337;SDS011;1682;49.286;10.788;2023-03-14T11:59:01;17.20;;;9.20;;
3337;SDS011;1682;49.286;10.788;2023-03-14T12:04:15;2.07;;;1.87;;
3337;SDS011;1682;49.286;10.788;2023-03-14T12:07:05;2.90;;;1.87;;
3337;SDS011;1682;49.286;10.788;2023-03-14T12:09:40;2.40;;;1.40;;
3337;SDS011;1682;49.286;10.788;2023-03-14T12:12:10;4.50;;;3.27;;
3337;SDS011;1682;49.286;10.788;2023-03-14T12:14:38;6.10;;;1.00;;
3337;SDS011;1682;49.286;10.788;2023-03-14T12:17:21;1.70;;;1.10;;
3337;SDS011;1682;49.286;10.788;2023-03-14T12:19:55;0.70;;;0.70;;
3337;SDS011;1682;49.286;10.788;2023-03-14T12:22:29;0.80;;;0.80;;
3337;SDS011;1682;49.286;10.788;2023-03-14T12:25:00;1.20;;;0.87;;
3337;SDS011;1682;49.286;10.788;2023-03-14T12:27:46;1.30;;;0.87;;
3337;SDS011;1682;49.286;10.788;2023-03-14T12:30:18;1.33;;;0.93;;
3337;SDS011;1682;49.286;10.788;2023-03-14T12:35:37;0.80;;;0.73;;
3337;SDS011;1682;49.286;10.788;2023-03-14T12:38:05;1.10;;;1.00;;
3337;SDS011;1682;49.286;10.788;2023-03-14T12:40:36;1.50;;;1.07;;
3337;SDS011;1682;49.286;10.788;2023-03-14T12:43:10;1.83;;;0.70;;
3337;SDS011;1682;49.286;10.788;2023-03-14T12:48:32;0.70;;;0.70;;
3337;SDS011;1682;49.286;10.788;2023-03-14T12:51:01;1.03;;;0.70;;
3337;SDS011;1682;49.286;10.788;2023-03-14T12:53:39;0.90;;;0.90;;
3337;SDS011;1682;49.286;10.788;2023-03-14T12:56:17;0.50;;;0.50;;
3337;SDS011;1682;49.286;10.788;2023-03-14T12:58:47;0.67;;;0.67;;
3337;SDS011;1682;49.286;10.788;2023-03-14T13:01:20;0.80;;;0.70;;
3337;SDS011;1682;49.286;10.788;2023-03-14T13:03:49;0.73;;;0.73;;
3337;SDS011;1682;49.286;10.788;2023-03-14T13:11:48;0.90;;;0.90;;
3337;SDS011;1682;49.286;10.788;2023-03-14T13:14:16;1.67;;;0.90;;
3337;SDS011;1682;49.286;10.788;2023-03-14T13:16:43;0.97;;;0.97;;
3337;SDS011;1682;49.286;10.788;2023-03-14T13:19:11;0.70;;;0.70;;
3337;SDS011;1682;49.286;10.788;2023-03-14T13:21:41;0.60;;;0.60;;
3337;SDS011;1682;49.286;10.788;2023-03-14T13:24:20;1.20;;;0.90;;
3337;SDS011;1682;49.286;10.788;2023-03-14T13:26:49;1.13;;;1.03;;
3337;SDS011;1682;49.286;10.788;2023-03-14T13:29:19;1.00;;;1.00;;
3337;SDS011;1682;49.286;10.788;2023-03-14T13:31:47;1.17;;;1.17;;
3337;SDS011;1682;49.286;10.788;2023-03-14T13:34:15;1.20;;;1.10;;
3337;SDS011;1682;49.286;10.788;2023-03-14T13:36:42;1.17;;;1.17;;
3337;SDS011;1682;49.286;10.788;2023-03-14T13:39:10;1.23;;;1.13;;
3337;SDS011;1682;49.286;10.788;2023-03-14T13:41:38;0.90;;;0.80;;
3337;SDS011;1682;49.286;10.788;2023-03-14T13:44:07;1.07;;;0.97;;
3337;SDS011;1682;49.286;10.788;2023-03-14T13:46:35;0.70;;;0.70;;
3337;SDS011;1682;49.286;10.788;2023-03-14T13:49:04;1.03;;;0.70;;
3337;SDS011;1682;49.286;10.788;2023-03-14T13:51:32;0.80;;;0.70;;
3337;SDS011;1682;49.286;10.788;2023-03-14T13:53:59;0.77;;;0.77;;
3337;SDS011;1682;49.286;10.788;2023-03-14T13:56:28;0.80;;;0.80;;
3337;SDS011;1682;49.286;10.788;2023-03-14T13:58:56;0.70;;;0.70;;
3337;SDS011;1682;49.286;10.788;2023-03-14T14:01:25;1.10;;;0.93;;
3337;SDS011;1682;49.286;10.788;2023-03-14T14:03:54;0.90;;;0.90;;
3337;SDS011;1682;49.286;10.788;2023-03-14T14:06:25;1.20;;;1.10;;
3337;SDS011;1682;49.286;10.788;2023-03-14T14:08:53;1.33;;;1.27;;
3337;SDS011;1682;49.286;10.788;2023-03-14T14:11:22;1.47;;;1.27;;
3337;SDS011;1682;49.286;10.788;2023-03-14T14:13:52;1.03;;;1.03;;
3337;SDS011;1682;49.286;10.788;2023-03-14T14:16:20;1.10;;;1.10;;
3337;SDS011;1682;49.286;10.788;2023-03-14T14:18:49;1.70;;;1.60;;
3337;SDS011;1682;49.286;10.788;2023-03-14T14:21:17;1.60;;;1.57;;
3337;SDS011;1682;49.286;10.788;2023-03-14T14:23:44;1.97;;;1.50;;
3337;SDS011;1682;49.286;10.788;2023-03-14T14:26:13;1.20;;;1.10;;
3337;SDS011;1682;49.286;10.788;2023-03-14T14:28:40;1.20;;;1.10;;
3337;SDS011;1682;49.286;10.788;2023-03-14T14:31:18;1.57;;;1.40;;
3337;SDS011;1682;49.286;10.788;2023-03-14T14:33:52;1.60;;;1.50;;
3337;SDS011;1682;49.286;10.788;2023-03-14T14:36:22;1.50;;;1.40;;
3337;SDS011;1682;49.286;10.788;2023-03-14T14:38:50;1.80;;;1.53;;
3337;SDS011;1682;49.286;10.788;2023-03-14T14:41:18;1.27;;;1.20;;
3337;SDS011;1682;49.286;10.788;2023-03-14T14:43:45;2.07;;;1.43;;
3337;SDS011;1682;49.286;10.788;2023-03-14T14:46:15;2.30;;;1.43;;
3337;SDS011;1682;49.286;10.788;2023-03-14T14:48:43;5.73;;;1.50;;
3337;SDS011;1682;49.286;10.788;2023-03-14T14:51:21;2.90;;;1.40;;
3337;SDS011;1682;49.286;10.788;2023-03-14T14:53:59;1.23;;;1.13;;
3337;SDS011;1682;49.286;10.788;2023-03-14T14:56:27;2.70;;;1.40;;
3337;SDS011;1682;49.286;10.788;2023-03-14T14:58:55;2.90;;;1.60;;
3337;SDS011;1682;49.286;10.788;2023-03-14T15:01:41;1.40;;;1.30;;
3337;SDS011;1682;49.286;10.788;2023-03-14T15:04:10;1.30;;;1.30;;
3337;SDS011;1682;49.286;10.788;2023-03-14T15:06:38;1.20;;;1.20;;
3337;SDS011;1682;49.286;10.788;2023-03-14T15:09:09;1.53;;;1.17;;
3337;SDS011;1682;49.286;10.788;2023-03-14T15:11:36;1.90;;;1.80;;
3337;SDS011;1682;49.286;10.788;2023-03-14T15:14:04;1.70;;;1.60;;
3337;SDS011;1682;49.286;10.788;2023-03-14T15:16:32;2.13;;;1.93;;
3337;SDS011;1682;49.286;10.788;2023-03-14T15:19:00;3.43;;;2.00;;
3337;SDS011;1682;49.286;10.788;2023-03-14T15:21:30;2.10;;;1.90;;
3337;SDS011;1682;49.286;10.788;2023-03-14T15:23:58;2.33;;;1.90;;
3337;SDS011;1682;49.286;10.788;2023-03-14T15:26:27;2.05;;;1.75;;
3337;SDS011;1682;49.286;10.788;2023-03-14T15:28:54;3.23;;;1.50;;
3337;SDS011;1682;49.286;10.788;2023-03-14T15:31:21;1.63;;;1.53;;
3337;SDS011;1682;49.286;10.788;2023-03-14T15:33:49;1.57;;;1.47;;